< < Back
Terminal Aerodrome Forecast


Current Version              Previous Versions:   1  2  3  4  5  6  7  8  9  

Terminal Aerodrome Forecast

827
FTUS42 KFFC 162321
TAFPDK
TAF
KPDK 162321Z 1700/1724 30008KT P6SM FEW040
     FM170900 31005KT P6SM SCT025
     FM171400 31009KT P6SM SKC=

Latest METAR

757
SAUS70 KWBC 180200 RRC
MTRPDK
METAR KPDK 180153Z 29005KT 10SM CLR 04/01 A3017 RMK AO2 SLP226
T00440011


USA.gov is the U.S. government's official web portal to all federal, state and local government web resources and services.